Briefing drone pour L'horme

Rechercher une autre localisation

Conditions de vol :


Nous sommes le : Samedi 02 mars 2024
Il est 19:33 UTC (20:33 LT)

Lever de soleil : 05:50 UTC (06:50 LT)
Coucher de soleil : 17:57 UTC (18:57 LT)

Météo

L'essentiel des conditions de vol

VIGILANCE MÉTÉO FRANCE - Loire (42)
Pas de vigilances particulieres
METAR de LFMH
LFMH 021930Z AUTO 18019G29KT 9999 SCT047 BKN060 BKN180 11/03 Q0997

Date d'émission: 02/03/2024
Heure d'émission: 19:30 UTC
Vent: 180° pour 19 KT (35 km/h) rafales pour 29 KT (54 km/h)
Visibilité horizontale: > 10 km
Plafond :
- Nuages épars à 4700ft (1433m)
- Nuages morcelés à 6000ft (1829m)
- Nuages morcelés à 18000ft (5486m)
Température: 11 °C
Point de rosée: 3 °C
Humidité: 58%
Pression (QNH): 997 hPa
TAF de LFMH
LFMH 161901Z 1619/1712 CNL

Conditions prévues :

Heure d'émission : Bulletin éffectué le 16 à 19:00 UTC
Prévision : Valide du 16 a 19:00 UTC au 17 a 12:00 UTC
Nuages : à 0ft (0 m)
WEBCAM POUR L'HORME

Réglementation

Voler en sécurité

CARTES AERONAUTIQUE 1/500.000
CARTE AZBA (Reseau basse altitude)
CARTES VAC (LFMH)
SUP AIP




Chargement des AIP...
NOTAM (L'HORME + Terrain à proximité / FIR )




Chargement des NOTAMS...
CONTACT PREFECTURE 42
Loire (42) : [email protected]


Avertissement : Les données mises à disposition sont indicatives. Oxygène Drone ne pourra être tenu responsable de dégâts causés aux biens et aux personnes.